Terminal Aerodrome Forecast
Issued by NWS

Home | Current Version | Previous Version | Text Only | Print | Product List | Glossary On
Versions: 1 2 3 4 5 6 7 8 9 10 11 12 13 14 15 16 17 18 19
442
FTUS43 KAPX 191125
TAFAPN
TAF
KAPN 191125Z 1912/2012 27006KT P6SM OVC015
     FM191300 30007KT P6SM OVC035
     FM191600 31008KT P6SM BKN050
     FM191900 30008KT P6SM SCT050
     FM200000 28004KT P6SM FEW250=

USA.gov is the U.S. government's official web portal to all federal, state and local government web resources and services.